sensor_id;sensor_type;location;lat;lon;timestamp;pressure;altitude;pressure_sealevel;temperature;humidity
68965;BME280;56017;48.680;8.998;2023-02-04T00:00:22;97940;;;7.6;85
68965;BME280;56017;48.680;8.998;2023-02-04T00:03:06;97940;;;7.6;85
68965;BME280;56017;48.680;8.998;2023-02-04T00:05:23;97940;;;7.6;85
68965;BME280;56017;48.680;8.998;2023-02-04T00:07:59;97950;;;7.6;85
68965;BME280;56017;48.680;8.998;2023-02-04T00:13:00;97940;;;7.6;85
68965;BME280;56017;48.680;8.998;2023-02-04T00:15:23;97940;;;7.6;85
68965;BME280;56017;48.680;8.998;2023-02-04T00:18:07;97940;;;7.6;85
68965;BME280;56017;48.680;8.998;2023-02-04T00:20:24;97930;;;7.6;85
68965;BME280;56017;48.680;8.998;2023-02-04T00:25:31;97930;;;7.6;85
68965;BME280;56017;48.680;8.998;2023-02-04T00:28:01;97930;;;7.6;85
68965;BME280;56017;48.680;8.998;2023-02-04T00:30:24;97930;;;7.6;85
68965;BME280;56017;48.680;8.998;2023-02-04T00:32:54;97910;;;7.6;84.5
68965;BME280;56017;48.680;8.998;2023-02-04T00:35:25;97910;;;7.6;85
68965;BME280;56017;48.680;8.998;2023-02-04T00:38:08;97910;;;7.6;85
68965;BME280;56017;48.680;8.998;2023-02-04T00:43:08;97930;;;7.6;84.5
68965;BME280;56017;48.680;8.998;2023-02-04T00:45:32;97930;;;7.6;84.5
68965;BME280;56017;48.680;8.998;2023-02-04T00:48:09;97920;;;7.7;85
68965;BME280;56017;48.680;8.998;2023-02-04T00:50:27;97920;;;7.7;84.5
68965;BME280;56017;48.680;8.998;2023-02-04T00:53:09;97930;;;7.7;84.5
68965;BME280;56017;48.680;8.998;2023-02-04T00:55:33;97930;;;7.7;84.5
68965;BME280;56017;48.680;8.998;2023-02-04T00:58:03;97930;;;7.8;84.5
68965;BME280;56017;48.680;8.998;2023-02-04T01:00:27;97920;;;7.7;85
68965;BME280;56017;48.680;8.998;2023-02-04T01:03:10;97930;;;7.8;85
68965;BME280;56017;48.680;8.998;2023-02-04T01:05:33;97940;;;7.8;85
68965;BME280;56017;48.680;8.998;2023-02-04T01:08:10;97930;;;7.8;84.5
68965;BME280;56017;48.680;8.998;2023-02-04T01:10:27;97950;;;7.9;85
68965;BME280;56017;48.680;8.998;2023-02-04T01:13:11;97950;;;7.9;84.5
68965;BME280;56017;48.680;8.998;2023-02-04T01:15:34;97940;;;7.9;84.5
68965;BME280;56017;48.680;8.998;2023-02-04T01:18:11;97940;;;7.9;84.5
68965;BME280;56017;48.680;8.998;2023-02-04T01:20:28;97940;;;7.9;84.5
68965;BME280;56017;48.680;8.998;2023-02-04T01:25:35;97950;;;7.9;84.5
68965;BME280;56017;48.680;8.998;2023-02-04T01:30:29;97940;;;7.9;84.5
68965;BME280;56017;48.680;8.998;2023-02-04T01:33:05;97940;;;7.8;84.5
68965;BME280;56017;48.680;8.998;2023-02-04T01:35:36;97940;;;7.8;85
68965;BME280;56017;48.680;8.998;2023-02-04T01:38:06;97950;;;7.8;85
68965;BME280;56017;48.680;8.998;2023-02-04T01:40:36;97950;;;7.8;85
68965;BME280;56017;48.680;8.998;2023-02-04T01:43:13;97950;;;7.7;85
68965;BME280;56017;48.680;8.998;2023-02-04T01:45:30;97950;;;7.7;85
68965;BME280;56017;48.680;8.998;2023-02-04T01:48:07;97950;;;7.7;85
68965;BME280;56017;48.680;8.998;2023-02-04T01:50:30;97950;;;7.7;85
68965;BME280;56017;48.680;8.998;2023-02-04T01:53:15;97950;;;7.7;85
68965;BME280;56017;48.680;8.998;2023-02-04T01:55:37;97950;;;7.7;85
68965;BME280;56017;48.680;8.998;2023-02-04T02:00:31;97950;;;7.8;84.5
68965;BME280;56017;48.680;8.998;2023-02-04T02:03:14;97950;;;7.8;84.5
68965;BME280;56017;48.680;8.998;2023-02-04T02:05:32;97950;;;7.8;84.5
68965;BME280;56017;48.680;8.998;2023-02-04T02:08:09;97960;;;7.8;84.5
68965;BME280;56017;48.680;8.998;2023-02-04T02:10:32;97960;;;7.9;84.5
68965;BME280;56017;48.680;8.998;2023-02-04T02:13:16;97960;;;7.8;84.5
68965;BME280;56017;48.680;8.998;2023-02-04T02:15:32;97960;;;7.8;84.5
68965;BME280;56017;48.680;8.998;2023-02-04T02:18:09;97950;;;7.6;84
68965;BME280;56017;48.680;8.998;2023-02-04T02:20:33;97950;;;7.5;84.5
68965;BME280;56017;48.680;8.998;2023-02-04T02:23:19;97960;;;7.3;84.5
68965;BME280;56017;48.680;8.998;2023-02-04T02:30:40;97980;;;7.1;85
68965;BME280;56017;48.680;8.998;2023-02-04T02:33:11;97970;;;7.1;85
68965;BME280;56017;48.680;8.998;2023-02-04T02:35:40;97970;;;7.1;85
68965;BME280;56017;48.680;8.998;2023-02-04T02:38:18;97970;;;7.1;85
68965;BME280;56017;48.680;8.998;2023-02-04T02:40:34;97970;;;7;85
68965;BME280;56017;48.680;8.998;2023-02-04T02:45:34;97990;;;7;85
68965;BME280;56017;48.680;8.998;2023-02-04T02:48:17;97990;;;7;85
68965;BME280;56017;48.680;8.998;2023-02-04T02:50:34;98000;;;7;85
68965;BME280;56017;48.680;8.998;2023-02-04T02:53:12;98000;;;7;85
68965;BME280;56017;48.680;8.998;2023-02-04T02:55:35;98010;;;7;85
68965;BME280;56017;48.680;8.998;2023-02-04T02:58:27;98000;;;7.1;85
68965;BME280;56017;48.680;8.998;2023-02-04T03:00:42;98000;;;7.1;85
68965;BME280;56017;48.680;8.998;2023-02-04T03:05:37;98000;;;7;85
68965;BME280;56017;48.680;8.998;2023-02-04T03:10:43;98010;;;7;85
68965;BME280;56017;48.680;8.998;2023-02-04T03:13:13;98010;;;7;85
68965;BME280;56017;48.680;8.998;2023-02-04T03:15:36;98000;;;7;85
68965;BME280;56017;48.680;8.998;2023-02-04T03:18:20;98010;;;7;85
68965;BME280;56017;48.680;8.998;2023-02-04T03:20:43;98010;;;7;85
68965;BME280;56017;48.680;8.998;2023-02-04T03:23:14;98010;;;7;85
68965;BME280;56017;48.680;8.998;2023-02-04T03:25:37;98020;;;7;85
68965;BME280;56017;48.680;8.998;2023-02-04T03:28:21;98010;;;7;85
68965;BME280;56017;48.680;8.998;2023-02-04T03:30:38;98020;;;7;85
68965;BME280;56017;48.680;8.998;2023-02-04T03:33:15;98020;;;7;85
68965;BME280;56017;48.680;8.998;2023-02-04T03:35:38;98020;;;7;84.5
68965;BME280;56017;48.680;8.998;2023-02-04T03:38:14;98030;;;7.1;84.5
68965;BME280;56017;48.680;8.998;2023-02-04T03:40:38;98030;;;7.1;84.5
68965;BME280;56017;48.680;8.998;2023-02-04T03:43:15;98040;;;7.1;84.5
68965;BME280;56017;48.680;8.998;2023-02-04T03:45:38;98050;;;7.2;84.5
68965;BME280;56017;48.680;8.998;2023-02-04T03:48:15;98060;;;7.2;84.5
68965;BME280;56017;48.680;8.998;2023-02-04T03:50:39;98060;;;7.1;84.5
68965;BME280;56017;48.680;8.998;2023-02-04T03:53:16;98070;;;7.1;84.5
68965;BME280;56017;48.680;8.998;2023-02-04T03:55:39;98070;;;6.9;84.5
68965;BME280;56017;48.680;8.998;2023-02-04T03:58:16;98070;;;6.9;84.5
68965;BME280;56017;48.680;8.998;2023-02-04T04:00:46;98070;;;6.8;84.5
68965;BME280;56017;48.680;8.998;2023-02-04T04:03:16;98070;;;6.7;84.5
68965;BME280;56017;48.680;8.998;2023-02-04T04:05:40;98080;;;6.5;85
68965;BME280;56017;48.680;8.998;2023-02-04T04:08:24;98080;;;6.5;85
68965;BME280;56017;48.680;8.998;2023-02-04T04:10:47;98080;;;6.4;85
68965;BME280;56017;48.680;8.998;2023-02-04T04:13:17;98090;;;6.4;85
68965;BME280;56017;48.680;8.998;2023-02-04T04:15:47;98080;;;6.4;85.5
68965;BME280;56017;48.680;8.998;2023-02-04T04:18:24;98090;;;6.4;85
68965;BME280;56017;48.680;8.998;2023-02-04T04:20:41;98090;;;6.4;85
68965;BME280;56017;48.680;8.998;2023-02-04T04:23:18;98090;;;6.4;85
68965;BME280;56017;48.680;8.998;2023-02-04T04:25:41;98100;;;6.3;85
68965;BME280;56017;48.680;8.998;2023-02-04T04:28:25;98090;;;6.3;85
68965;BME280;56017;48.680;8.998;2023-02-04T04:30:48;98100;;;6.3;85
68965;BME280;56017;48.680;8.998;2023-02-04T04:33:12;98100;;;6.3;85
68965;BME280;56017;48.680;8.998;2023-02-04T04:35:42;98110;;;6.4;85
68965;BME280;56017;48.680;8.998;2023-02-04T04:38:25;98110;;;6.4;85
68965;BME280;56017;48.680;8.998;2023-02-04T04:40:42;98120;;;6.4;85
68965;BME280;56017;48.680;8.998;2023-02-04T04:43:19;98110;;;6.5;85
68965;BME280;56017;48.680;8.998;2023-02-04T04:45:43;98110;;;6.5;85
68965;BME280;56017;48.680;8.998;2023-02-04T04:48:26;98110;;;6.5;85
68965;BME280;56017;48.680;8.998;2023-02-04T04:50:43;98110;;;6.4;84.5
68965;BME280;56017;48.680;8.998;2023-02-04T04:53:20;98120;;;6.4;85
68965;BME280;56017;48.680;8.998;2023-02-04T04:55:43;98120;;;6.4;85
68965;BME280;56017;48.680;8.998;2023-02-04T04:58:27;98120;;;6.4;85
68965;BME280;56017;48.680;8.998;2023-02-04T05:00:44;98120;;;6.5;85
68965;BME280;56017;48.680;8.998;2023-02-04T05:03:28;98120;;;6.6;85
68965;BME280;56017;48.680;8.998;2023-02-04T05:05:44;98120;;;6.7;84.5
68965;BME280;56017;48.680;8.998;2023-02-04T05:08:21;98120;;;6.7;84.5
68965;BME280;56017;48.680;8.998;2023-02-04T05:10:45;98120;;;6.8;84.5
68965;BME280;56017;48.680;8.998;2023-02-04T05:13:22;98120;;;6.8;84
68965;BME280;56017;48.680;8.998;2023-02-04T05:15:45;98120;;;6.9;83.5
68965;BME280;56017;48.680;8.998;2023-02-04T05:18:22;98120;;;6.9;83.5
68965;BME280;56017;48.680;8.998;2023-02-04T05:20:45;98120;;;6.9;83.5
68965;BME280;56017;48.680;8.998;2023-02-04T05:23:22;98120;;;6.7;83.5
68965;BME280;56017;48.680;8.998;2023-02-04T05:25:45;98110;;;6.6;84
68965;BME280;56017;48.680;8.998;2023-02-04T05:28:22;98110;;;6.6;84
68965;BME280;56017;48.680;8.998;2023-02-04T05:30:46;98110;;;6.5;84
68965;BME280;56017;48.680;8.998;2023-02-04T05:33:32;98110;;;6.5;84.5
68965;BME280;56017;48.680;8.998;2023-02-04T05:35:46;98110;;;6.5;84.5
68965;BME280;56017;48.680;8.998;2023-02-04T05:38:30;98110;;;6.5;84.5
68965;BME280;56017;48.680;8.998;2023-02-04T05:40:47;98130;;;6.5;84.5
68965;BME280;56017;48.680;8.998;2023-02-04T05:43:23;98130;;;6.7;84
68965;BME280;56017;48.680;8.998;2023-02-04T05:45:47;98130;;;6.7;84
68965;BME280;56017;48.680;8.998;2023-02-04T05:48:24;98130;;;6.7;84
68965;BME280;56017;48.680;8.998;2023-02-04T05:50:47;98140;;;6.7;84
68965;BME280;56017;48.680;8.998;2023-02-04T05:53:31;98140;;;6.8;83.5
68965;BME280;56017;48.680;8.998;2023-02-04T05:55:48;98130;;;6.8;83.5
68965;BME280;56017;48.680;8.998;2023-02-04T05:58:24;98130;;;6.7;83.5
68965;BME280;56017;48.680;8.998;2023-02-04T06:00:48;98120;;;6.6;83.5
68965;BME280;56017;48.680;8.998;2023-02-04T06:03:25;98130;;;6.6;84
68965;BME280;56017;48.680;8.998;2023-02-04T06:05:48;98130;;;6.6;84
68965;BME280;56017;48.680;8.998;2023-02-04T06:08:25;98140;;;6.7;84
68965;BME280;56017;48.680;8.998;2023-02-04T06:10:49;98150;;;6.7;84
68965;BME280;56017;48.680;8.998;2023-02-04T06:13:25;98150;;;6.6;84
68965;BME280;56017;48.680;8.998;2023-02-04T06:15:49;98140;;;6.7;84
68965;BME280;56017;48.680;8.998;2023-02-04T06:18:26;98150;;;6.7;84
68965;BME280;56017;48.680;8.998;2023-02-04T06:20:50;98160;;;6.7;83.5
68965;BME280;56017;48.680;8.998;2023-02-04T06:23:26;98170;;;6.7;83.5
68965;BME280;56017;48.680;8.998;2023-02-04T06:25:50;98180;;;6.6;84
68965;BME280;56017;48.680;8.998;2023-02-04T06:28:27;98170;;;6.7;84
68965;BME280;56017;48.680;8.998;2023-02-04T06:30:50;98170;;;6.7;83.5
68965;BME280;56017;48.680;8.998;2023-02-04T06:33:34;98180;;;6.8;83.5
68965;BME280;56017;48.680;8.998;2023-02-04T06:35:51;98190;;;6.8;83.5
68965;BME280;56017;48.680;8.998;2023-02-04T06:38:27;98190;;;6.8;83.5
68965;BME280;56017;48.680;8.998;2023-02-04T06:40:51;98200;;;6.8;83.5
68965;BME280;56017;48.680;8.998;2023-02-04T06:45:51;98200;;;6.8;83
68965;BME280;56017;48.680;8.998;2023-02-04T06:48:35;98200;;;6.8;83
68965;BME280;56017;48.680;8.998;2023-02-04T06:50:52;98200;;;6.8;83
68965;BME280;56017;48.680;8.998;2023-02-04T06:53:22;98210;;;6.9;83
68965;BME280;56017;48.680;8.998;2023-02-04T06:55:52;98210;;;6.9;83
68965;BME280;56017;48.680;8.998;2023-02-04T06:58:29;98210;;;6.9;83
68965;BME280;56017;48.680;8.998;2023-02-04T07:00:52;98220;;;6.8;83
68965;BME280;56017;48.680;8.998;2023-02-04T07:03:36;98210;;;6.8;83.5
68965;BME280;56017;48.680;8.998;2023-02-04T07:05:53;98210;;;6.8;83
68965;BME280;56017;48.680;8.998;2023-02-04T07:08:29;98220;;;6.7;83.5
68965;BME280;56017;48.680;8.998;2023-02-04T07:10:53;98220;;;6.7;83.5
68965;BME280;56017;48.680;8.998;2023-02-04T07:13:23;98220;;;6.7;83.5
68965;BME280;56017;48.680;8.998;2023-02-04T07:15:53;98220;;;6.7;83.5
68965;BME280;56017;48.680;8.998;2023-02-04T07:18:30;98230;;;6.7;83.5
68965;BME280;56017;48.680;8.998;2023-02-04T07:20:54;98240;;;6.7;83.5
68965;BME280;56017;48.680;8.998;2023-02-04T07:23:37;98230;;;6.7;83
68965;BME280;56017;48.680;8.998;2023-02-04T07:25:54;98240;;;6.7;83
68965;BME280;56017;48.680;8.998;2023-02-04T07:28:31;98240;;;6.6;83.5
68965;BME280;56017;48.680;8.998;2023-02-04T07:30:54;98250;;;6.6;83.5
68965;BME280;56017;48.680;8.998;2023-02-04T07:33:38;98250;;;6.6;84
68965;BME280;56017;48.680;8.998;2023-02-04T07:35:55;98250;;;6.6;84
68965;BME280;56017;48.680;8.998;2023-02-04T07:38:38;98260;;;6.6;84
68965;BME280;56017;48.680;8.998;2023-02-04T07:40:55;98250;;;6.7;83.5
68965;BME280;56017;48.680;8.998;2023-02-04T07:43:32;98250;;;6.7;83.5
68965;BME280;56017;48.680;8.998;2023-02-04T07:46:02;98250;;;6.7;83
68965;BME280;56017;48.680;8.998;2023-02-04T07:48:32;98260;;;6.7;83
68965;BME280;56017;48.680;8.998;2023-02-04T07:50:56;98260;;;6.7;83.5
68965;BME280;56017;48.680;8.998;2023-02-04T07:53:26;98270;;;6.7;83.5
68965;BME280;56017;48.680;8.998;2023-02-04T07:55:56;98270;;;6.7;83.5
68965;BME280;56017;48.680;8.998;2023-02-04T08:00:57;98270;;;6.7;83
68965;BME280;56017;48.680;8.998;2023-02-04T08:03:34;98280;;;6.7;83
68965;BME280;56017;48.680;8.998;2023-02-04T08:05:57;98280;;;6.6;83.5
68965;BME280;56017;48.680;8.998;2023-02-04T08:08:40;98280;;;6.6;84
68965;BME280;56017;48.680;8.998;2023-02-04T08:10:58;98290;;;6.7;84
68965;BME280;56017;48.680;8.998;2023-02-04T08:13:34;98280;;;6.8;84
68965;BME280;56017;48.680;8.998;2023-02-04T08:16:04;98280;;;6.9;84
68965;BME280;56017;48.680;8.998;2023-02-04T08:18:35;98280;;;6.9;83.5
68965;BME280;56017;48.680;8.998;2023-02-04T08:20:58;98290;;;7;83.5
68965;BME280;56017;48.680;8.998;2023-02-04T08:23:42;98290;;;7;83.5
68965;BME280;56017;48.680;8.998;2023-02-04T08:28:29;98290;;;7;84
68965;BME280;56017;48.680;8.998;2023-02-04T08:30:59;98300;;;7.1;83.5
68965;BME280;56017;48.680;8.998;2023-02-04T08:35:59;98310;;;7.1;83.5
68965;BME280;56017;48.680;8.998;2023-02-04T08:38:36;98310;;;7.1;83.5
68965;BME280;56017;48.680;8.998;2023-02-04T08:41:00;98310;;;7.1;84
68965;BME280;56017;48.680;8.998;2023-02-04T08:43:43;98310;;;7.2;84
68965;BME280;56017;48.680;8.998;2023-02-04T08:46:00;98310;;;7.3;83.5
68965;BME280;56017;48.680;8.998;2023-02-04T08:48:37;98310;;;7.3;83.5
68965;BME280;56017;48.680;8.998;2023-02-04T08:51:07;98320;;;7.3;84
68965;BME280;56017;48.680;8.998;2023-02-04T08:53:37;98330;;;7.3;84
68965;BME280;56017;48.680;8.998;2023-02-04T08:56:07;98330;;;7.4;83.5
68965;BME280;56017;48.680;8.998;2023-02-04T08:58:38;98330;;;7.6;83.5
68965;BME280;56017;48.680;8.998;2023-02-04T09:01:01;98330;;;7.6;83
68965;BME280;56017;48.680;8.998;2023-02-04T09:03:44;98330;;;7.7;83
68965;BME280;56017;48.680;8.998;2023-02-04T09:06:02;98340;;;7.7;83.5
68965;BME280;56017;48.680;8.998;2023-02-04T09:08:38;98350;;;7.7;83.5
68965;BME280;56017;48.680;8.998;2023-02-04T09:11:02;98350;;;7.7;84
68965;BME280;56017;48.680;8.998;2023-02-04T09:13:45;98350;;;7.8;83.5
68965;BME280;56017;48.680;8.998;2023-02-04T09:16:02;98360;;;7.9;83.5
68965;BME280;56017;48.680;8.998;2023-02-04T09:18:39;98350;;;8.1;83
68965;BME280;56017;48.680;8.998;2023-02-04T09:21:03;98360;;;8.1;83
68965;BME280;56017;48.680;8.998;2023-02-04T09:23:39;98360;;;8.3;83.5
68965;BME280;56017;48.680;8.998;2023-02-04T09:26:03;98350;;;8.6;83
68965;BME280;56017;48.680;8.998;2023-02-04T09:28:40;98350;;;8.8;82
68965;BME280;56017;48.680;8.998;2023-02-04T09:31:03;98350;;;8.8;82
68965;BME280;56017;48.680;8.998;2023-02-04T09:36:10;98360;;;8.8;83.5
68965;BME280;56017;48.680;8.998;2023-02-04T09:38:40;98360;;;9.1;83
68965;BME280;56017;48.680;8.998;2023-02-04T09:41:11;98370;;;9.4;83
68965;BME280;56017;48.680;8.998;2023-02-04T09:43:47;98370;;;9.2;82.5
68965;BME280;56017;48.680;8.998;2023-02-04T09:46:15;98370;;;8.9;82.5
68965;BME280;56017;48.680;8.998;2023-02-04T09:48:41;98380;;;8.7;83
68965;BME280;56017;48.680;8.998;2023-02-04T09:51:05;98390;;;8.6;83
68965;BME280;56017;48.680;8.998;2023-02-04T09:53:49;98390;;;8.6;83
68965;BME280;56017;48.680;8.998;2023-02-04T09:56:12;98390;;;8.6;83.5
68965;BME280;56017;48.680;8.998;2023-02-04T09:58:42;98390;;;8.6;83.5
68965;BME280;56017;48.680;8.998;2023-02-04T10:01:11;98390;;;8.6;83
68965;BME280;56017;48.680;8.998;2023-02-04T10:03:49;98390;;;8.6;83
68965;BME280;56017;48.680;8.998;2023-02-04T10:06:07;98390;;;8.7;83.5
68965;BME280;56017;48.680;8.998;2023-02-04T10:08:43;98390;;;8.9;83
68965;BME280;56017;48.680;8.998;2023-02-04T10:11:06;98380;;;8.9;83
68965;BME280;56017;48.680;8.998;2023-02-04T10:13:50;98390;;;8.9;82.5
68965;BME280;56017;48.680;8.998;2023-02-04T10:16:14;98390;;;8.8;83.5
68965;BME280;56017;48.680;8.998;2023-02-04T10:18:50;98380;;;8.8;84
68965;BME280;56017;48.680;8.998;2023-02-04T10:21:12;98380;;;8.8;84
68965;BME280;56017;48.680;8.998;2023-02-04T10:23:52;98390;;;9;83.5
68965;BME280;56017;48.680;8.998;2023-02-04T10:26:10;98380;;;8.9;83.5
68965;BME280;56017;48.680;8.998;2023-02-04T10:28:44;98380;;;8.9;83.5
68965;BME280;56017;48.680;8.998;2023-02-04T10:31:31;98370;;;9;84
68965;BME280;56017;48.680;8.998;2023-02-04T10:34:00;98370;;;8.9;83.5
68965;BME280;56017;48.680;8.998;2023-02-04T10:36:08;98380;;;8.8;83.5
68965;BME280;56017;48.680;8.998;2023-02-04T10:38:57;98380;;;8.7;83.5
68965;BME280;56017;48.680;8.998;2023-02-04T10:41:11;98380;;;8.7;84
68965;BME280;56017;48.680;8.998;2023-02-04T10:44:01;98370;;;8.7;84
68965;BME280;56017;48.680;8.998;2023-02-04T10:46:18;98370;;;8.8;84
68965;BME280;56017;48.680;8.998;2023-02-04T10:48:46;98370;;;8.8;83.5
68965;BME280;56017;48.680;8.998;2023-02-04T10:51:10;98360;;;8.8;83.5
68965;BME280;56017;48.680;8.998;2023-02-04T10:53:53;98370;;;8.7;83.5
68965;BME280;56017;48.680;8.998;2023-02-04T10:56:18;98370;;;8.7;83.5
68965;BME280;56017;48.680;8.998;2023-02-04T10:58:53;98370;;;8.7;83.5
68965;BME280;56017;48.680;8.998;2023-02-04T11:01:10;98370;;;8.8;83.5
68965;BME280;56017;48.680;8.998;2023-02-04T11:03:47;98370;;;8.8;83.5
68965;BME280;56017;48.680;8.998;2023-02-04T11:06:11;98380;;;8.9;83.5
68965;BME280;56017;48.680;8.998;2023-02-04T11:08:47;98380;;;8.9;83.5
68965;BME280;56017;48.680;8.998;2023-02-04T11:11:18;98380;;;9;83.5
68965;BME280;56017;48.680;8.998;2023-02-04T11:13:57;98380;;;9.1;83.5
68965;BME280;56017;48.680;8.998;2023-02-04T11:16:24;98380;;;9.1;84
68965;BME280;56017;48.680;8.998;2023-02-04T11:18:49;98380;;;9.2;83.5
68965;BME280;56017;48.680;8.998;2023-02-04T11:21:21;98380;;;9.2;83.5
68965;BME280;56017;48.680;8.998;2023-02-04T11:24:24;98380;;;9.1;83.5
68965;BME280;56017;48.680;8.998;2023-02-04T11:26:13;98380;;;9.1;83.5
68965;BME280;56017;48.680;8.998;2023-02-04T11:28:50;98380;;;9.1;84
68965;BME280;56017;48.680;8.998;2023-02-04T11:34:28;98370;;;9.6;83.5
68965;BME280;56017;48.680;8.998;2023-02-04T11:36:19;98370;;;9.8;83
68965;BME280;56017;48.680;8.998;2023-02-04T11:38:56;98370;;;9.8;83
68965;BME280;56017;48.680;8.998;2023-02-04T11:41:22;98370;;;9.9;83
68965;BME280;56017;48.680;8.998;2023-02-04T11:43:56;98370;;;10;83
68965;BME280;56017;48.680;8.998;2023-02-04T11:46:15;98370;;;10;82.5
68965;BME280;56017;48.680;8.998;2023-02-04T11:48:51;98370;;;9.9;83
68965;BME280;56017;48.680;8.998;2023-02-04T11:51:15;98370;;;9.7;83
68965;BME280;56017;48.680;8.998;2023-02-04T11:53:50;98370;;;9.5;83.5
68965;BME280;56017;48.680;8.998;2023-02-04T11:56:21;98370;;;9.5;83.5
68965;BME280;56017;48.680;8.998;2023-02-04T12:01:18;98370;;;9.3;83.5
68965;BME280;56017;48.680;8.998;2023-02-04T12:03:58;98380;;;9.1;83.5
68965;BME280;56017;48.680;8.998;2023-02-04T12:06:23;98380;;;9;83.5
68965;BME280;56017;48.680;8.998;2023-02-04T12:08:51;98380;;;9;84
68965;BME280;56017;48.680;8.998;2023-02-04T12:11:30;98380;;;9.1;84
68965;BME280;56017;48.680;8.998;2023-02-04T12:14:05;98380;;;9.1;84
68965;BME280;56017;48.680;8.998;2023-02-04T12:16:22;98390;;;9.2;84
68965;BME280;56017;48.680;8.998;2023-02-04T12:18:52;98390;;;9.2;83.5
68965;BME280;56017;48.680;8.998;2023-02-04T12:21:16;98390;;;9.3;84.5
68965;BME280;56017;48.680;8.998;2023-02-04T12:23:59;98390;;;9.5;84
68965;BME280;56017;48.680;8.998;2023-02-04T12:26:22;98390;;;9.6;83.5
68965;BME280;56017;48.680;8.998;2023-02-04T12:28:53;98390;;;9.6;83.5
68965;BME280;56017;48.680;8.998;2023-02-04T12:31:16;98390;;;9.4;83
68965;BME280;56017;48.680;8.998;2023-02-04T12:34:00;98390;;;9.1;83.5
68965;BME280;56017;48.680;8.998;2023-02-04T12:36:23;98390;;;9.1;83.5
68965;BME280;56017;48.680;8.998;2023-02-04T12:41:17;98390;;;9.7;84
68965;BME280;56017;48.680;8.998;2023-02-04T12:44:07;98390;;;10.1;83.5
68965;BME280;56017;48.680;8.998;2023-02-04T12:51:12;98400;;;9.6;83.5
68965;BME280;56017;48.680;8.998;2023-02-04T12:53:43;98390;;;9.7;84
68965;BME280;56017;48.680;8.998;2023-02-04T12:56:14;98390;;;10.1;84
68965;BME280;56017;48.680;8.998;2023-02-04T12:58:45;98390;;;10.6;83.5
68965;BME280;56017;48.680;8.998;2023-02-04T13:01:16;98390;;;11.6;81.5
68965;BME280;56017;48.680;8.998;2023-02-04T13:03:54;98390;;;11.8;81
68965;BME280;56017;48.680;8.998;2023-02-04T13:06:24;98390;;;11.4;81.5
68965;BME280;56017;48.680;8.998;2023-02-04T13:08:49;98390;;;11.3;82.5
68965;BME280;56017;48.680;8.998;2023-02-04T13:11:20;98390;;;12.1;82
68965;BME280;56017;48.680;8.998;2023-02-04T13:13:51;98390;;;13.3;79.5
68965;BME280;56017;48.680;8.998;2023-02-04T13:16:28;98390;;;12.5;79
68965;BME280;56017;48.680;8.998;2023-02-04T13:18:53;98380;;;11.6;80.5
68965;BME280;56017;48.680;8.998;2023-02-04T13:24:01;98390;;;10.8;83.5
68965;BME280;56017;48.680;8.998;2023-02-04T13:26:45;98390;;;10.7;82.5
68965;BME280;56017;48.680;8.998;2023-02-04T13:29:08;98390;;;10.7;83.5
68965;BME280;56017;48.680;8.998;2023-02-04T13:31:38;98380;;;12;81.5
68965;BME280;56017;48.680;8.998;2023-02-04T13:34:02;98390;;;12.6;82
68965;BME280;56017;48.680;8.998;2023-02-04T13:36:26;98380;;;13.2;81
68965;BME280;56017;48.680;8.998;2023-02-04T13:38:57;98380;;;13.2;81
68965;BME280;56017;48.680;8.998;2023-02-04T13:41:28;98380;;;13.3;81.5
68965;BME280;56017;48.680;8.998;2023-02-04T13:43:59;98380;;;13.4;81
68965;BME280;56017;48.680;8.998;2023-02-04T13:46:30;98390;;;12.9;80.5
68965;BME280;56017;48.680;8.998;2023-02-04T13:49:01;98390;;;12.1;81.5
68965;BME280;56017;48.680;8.998;2023-02-04T13:51:32;98400;;;11.3;81.5
68965;BME280;56017;48.680;8.998;2023-02-04T13:54:06;98400;;;10.7;82
68965;BME280;56017;48.680;8.998;2023-02-04T13:56:33;98410;;;10.2;83
68965;BME280;56017;48.680;8.998;2023-02-04T13:59:05;98400;;;9.8;83.5
68965;BME280;56017;48.680;8.998;2023-02-04T14:01:35;98410;;;9.9;84
68965;BME280;56017;48.680;8.998;2023-02-04T14:04:07;98410;;;10.1;82.5
68965;BME280;56017;48.680;8.998;2023-02-04T14:06:37;98420;;;9.7;83
68965;BME280;56017;48.680;8.998;2023-02-04T14:09:09;98420;;;9.4;83.5
68965;BME280;56017;48.680;8.998;2023-02-04T14:11:39;98420;;;9.2;83.5
68965;BME280;56017;48.680;8.998;2023-02-04T14:16:41;98420;;;9;83.5
68965;BME280;56017;48.680;8.998;2023-02-04T14:21:43;98420;;;9.4;83.5
68965;BME280;56017;48.680;8.998;2023-02-04T14:24:15;98420;;;10.6;82.5
68965;BME280;56017;48.680;8.998;2023-02-04T14:26:45;98420;;;12;81
68965;BME280;56017;48.680;8.998;2023-02-04T14:29:18;98410;;;13.5;78
68965;BME280;56017;48.680;8.998;2023-02-04T14:31:47;98410;;;13.7;78.5
68965;BME280;56017;48.680;8.998;2023-02-04T14:34:18;98410;;;13.5;78.5
68965;BME280;56017;48.680;8.998;2023-02-04T14:36:49;98410;;;12.9;79
68965;BME280;56017;48.680;8.998;2023-02-04T14:41:51;98410;;;12.5;79
68965;BME280;56017;48.680;8.998;2023-02-04T14:44:24;98430;;;12.4;79
68965;BME280;56017;48.680;8.998;2023-02-04T14:46:53;98420;;;12.5;79.5
68965;BME280;56017;48.680;8.998;2023-02-04T14:49:25;98410;;;12.6;79
68965;BME280;56017;48.680;8.998;2023-02-04T14:51:55;98420;;;12.4;80.5
68965;BME280;56017;48.680;8.998;2023-02-04T14:54:27;98420;;;12.2;81.5
68965;BME280;56017;48.680;8.998;2023-02-04T14:56:57;98420;;;12.2;81.5
68965;BME280;56017;48.680;8.998;2023-02-04T14:59:28;98430;;;12.1;81
68965;BME280;56017;48.680;8.998;2023-02-04T15:01:59;98440;;;12.2;80.5
68965;BME280;56017;48.680;8.998;2023-02-04T15:04:42;98430;;;12.5;81.5
68965;BME280;56017;48.680;8.998;2023-02-04T15:07:01;98430;;;12.6;81
68965;BME280;56017;48.680;8.998;2023-02-04T15:14:34;98430;;;10.7;81
68965;BME280;56017;48.680;8.998;2023-02-04T15:17:05;98430;;;10;82
68965;BME280;56017;48.680;8.998;2023-02-04T15:19:36;98430;;;9.6;82.5
68965;BME280;56017;48.680;8.998;2023-02-04T15:22:07;98440;;;9.3;83.5
68965;BME280;56017;48.680;8.998;2023-02-04T15:24:39;98440;;;9;83
68965;BME280;56017;48.680;8.998;2023-02-04T15:27:09;98440;;;8.7;83
68965;BME280;56017;48.680;8.998;2023-02-04T15:29:40;98450;;;8.4;83.5
68965;BME280;56017;48.680;8.998;2023-02-04T15:32:11;98450;;;8.2;84
68965;BME280;56017;48.680;8.998;2023-02-04T15:37:13;98460;;;8.1;84
68965;BME280;56017;48.680;8.998;2023-02-04T15:47:17;98450;;;8.1;83.5
68965;BME280;56017;48.680;8.998;2023-02-04T15:49:48;98460;;;8;83.5
68965;BME280;56017;48.680;8.998;2023-02-04T15:52:19;98460;;;8;83.5
68965;BME280;56017;48.680;8.998;2023-02-04T15:54:50;98460;;;7.9;83